Mount Burr Forest Reserve, South Australia

9:39 PM ACST on August 28, 2016 (GMT +0930)
Naracoorte | | Change Station

Elev 165 ft 36.96 °S, 140.74 °E | Updated 3 minutes ago

Clear
Clear
56.2 °F
Feels Like 56.2 °F
N
4.0
Wind Variable Wind from ENE
Gusts 8.0 mph

Today
High -- | Low -- °F
--% Chance of Precip.
Yesterday
High -- | Low -- °F
Precip. -- in
Pressure 30.06 in
Visibility 6.2 miles
Clouds
Dew Point 41 °F
Humidity 58%
Rainfall 0.00 in
Snow Depth Not available.
6:33 AM 5:43 PM
Waning Crescent, 16% visible
METAR YMTG 281100Z AUTO 05006KT 9999 // NCD 11/05 Q1018
Pressure 30.06 in
Visibility 6.2 miles
Clouds
Dew Point 41 °F
Humidity 58%
Rainfall 0.00 in
Snow Depth Not available.
6:33 AM 5:43 PM
Waning Crescent, 16% visible
METAR YMTG 281100Z AUTO 05006KT 9999 // NCD 11/05 Q1018

10-Day Weather Forecast

Almanac

Astronomy

Aug. 28, 2016 Rise Set
Actual Time
Civil Twilight
Nautical Twilight
Astronomical Twilight
Moon
Length of Visible Light
Length of Day
Tomorrow will be .
, % of the Moon is Illuminated

Today's Extremes

Country Highs Country Lows

Community

WunderPhotos

Upload Photos

1,935,552 photos uploaded!

WunderBlog® & News

Nearby

Air Quality

  Air Quality AQ Index Pollutant
Not available.

Snow Depth

Station Depth Elevation

Earthquake Activity

City Distance Mag. Time & Date
Minimum magnitude displayed is 2.5.

Coastal Water Temperatures

Place Temperature

Stations

Nearby Weather Stations

Station Location Temp. Windchill Dew Point Humidity Wind Precip. Elev Updated Type